Time;durP1;ratioP1;P1;durP2;ratioP2;P2;SDS_P1;SDS_P2;PMS_P1;PMS_P2;Temp;Humidity;BMP_temperature;BMP_pressure;BME280_temperature;BME280_humidity;BME280_pressure;Samples;Min_cycle;Max_cycle;Signal;HPM_P1;HPM_P2
2023/05/09 00:02:00;;;;;;;47.33;23.75;;;;;;;14.53;96.33;101663.75;4998708;28;20076;-67
2023/05/09 00:04:26;;;;;;;41.85;21.20;;;;;;;14.52;95.37;101667.50;5004662;28;20034;-67
2023/05/09 00:06:52;;;;;;;39.67;21.45;;;;;;;14.52;95.17;101663.88;4986605;28;20027;-67
2023/05/09 00:09:17;;;;;;;47.42;22.25;;;;;;;14.51;95.48;101653.94;4988737;28;20038;-67
2023/05/09 00:11:43;;;;;;;39.42;20.48;;;;;;;14.49;95.71;101653.16;4988123;28;20434;-67
2023/05/09 00:14:11;;;;;;;42.60;21.92;;;;;;;14.46;95.83;101651.50;4988684;28;20118;-68
2023/05/09 00:16:36;;;;;;;37.35;19.30;;;;;;;14.48;95.84;101651.41;4987234;28;20026;-68
2023/05/09 00:19:02;;;;;;;40.75;20.95;;;;;;;14.48;95.53;101651.41;4988213;28;20030;-68
2023/05/09 00:21:28;;;;;;;41.22;20.00;;;;;;;14.47;95.52;101641.44;4988323;28;20222;-67
2023/05/09 00:23:53;;;;;;;42.80;20.38;;;;;;;14.47;95.83;101646.91;4988429;28;20068;-68
2023/05/09 00:26:18;;;;;;;44.08;21.70;;;;;;;14.47;96.36;101649.63;4987109;28;20366;-68
2023/05/09 00:28:44;;;;;;;40.58;20.77;;;;;;;14.43;97.56;101643.50;5006335;28;20038;-67
2023/05/09 00:31:10;;;;;;;42.72;20.73;;;;;;;14.39;97.00;101630.19;5007772;28;20030;-67
2023/05/09 00:33:35;;;;;;;38.05;19.25;;;;;;;14.37;96.15;101635.78;5006225;28;20041;-68
2023/05/09 00:36:01;;;;;;;39.28;20.58;;;;;;;14.36;95.87;101627.66;5000050;28;20042;-68
2023/05/09 00:38:27;;;;;;;34.17;18.65;;;;;;;14.32;95.68;101621.56;4987726;28;20057;-67
2023/05/09 00:40:52;;;;;;;37.60;18.02;;;;;;;14.36;97.17;101624.91;4970912;28;20508;-68
2023/05/09 00:43:17;;;;;;;31.70;17.67;;;;;;;14.35;95.79;101626.78;5002405;28;20509;-67
2023/05/09 00:45:44;;;;;;;34.50;18.88;;;;;;;14.35;95.44;101628.66;5007605;28;20509;-68
2023/05/09 00:48:09;;;;;;;36.45;18.45;;;;;;;14.37;97.00;101638.50;5007202;28;20043;-68
2023/05/09 00:50:36;;;;;;;34.95;18.35;;;;;;;14.35;97.48;101629.53;5007592;28;20041;-68
2023/05/09 00:53:02;;;;;;;35.83;17.90;;;;;;;14.35;96.31;101624.06;4986578;28;20048;-67
2023/05/09 00:55:28;;;;;;;34.47;18.35;;;;;;;14.35;97.23;101624.06;4987505;28;20038;-68
2023/05/09 00:57:53;;;;;;;36.83;18.15;;;;;;;14.32;96.55;101621.56;4998824;28;20128;-67
2023/05/09 01:00:19;;;;;;;33.40;18.42;;;;;;;14.36;97.37;101620.34;5007147;28;20045;-68
2023/05/09 01:02:49;;;;;;;36.25;17.35;;;;;;;14.37;97.21;101619.34;5000774;28;20406;-67
2023/05/09 01:05:14;;;;;;;33.80;16.75;;;;;;;14.37;98.01;101613.00;4985699;28;20090;-68
2023/05/09 01:08:06;;;;;;;33.30;17.60;;;;;;;14.37;96.94;101602.06;4984976;28;20069;-68
2023/05/09 01:11:00;;;;;;;30.40;16.73;;;;;;;14.38;97.11;101599.19;4987473;28;20038;-68
2023/05/09 01:13:37;;;;;;;34.50;17.45;;;;;;;14.38;96.86;101601.06;4981399;28;20086;-68
2023/05/09 01:16:22;;;;;;;34.63;16.98;;;;;;;14.38;96.31;101596.47;4986091;28;20038;-68
2023/05/09 01:19:01;;;;;;;27.27;15.48;;;;;;;14.36;96.19;101587.50;4985899;28;20470;-67
2023/05/09 01:21:29;;;;;;;28.55;16.02;;;;;;;14.36;96.20;101586.59;4987153;28;20124;-67
2023/05/09 01:24:00;;;;;;;26.33;15.77;;;;;;;14.33;96.51;101576.78;4987221;28;20034;-67
2023/05/09 01:26:48;;;;;;;27.10;14.60;;;;;;;14.36;95.75;101572.91;4987502;28;20042;-68
2023/05/09 01:29:38;;;;;;;30.95;16.08;;;;;;;14.32;95.92;101569.56;4986006;28;20050;-67
2023/05/09 01:32:14;;;;;;;30.45;15.32;;;;;;;14.28;95.87;101568.91;4985425;28;20545;-67
2023/05/09 01:34:42;;;;;;;27.23;15.85;;;;;;;14.27;95.63;101564.44;4987296;28;20505;-67
2023/05/09 01:37:09;;;;;;;31.17;15.90;;;;;;;14.28;95.51;101566.19;4985707;28;20038;-68
2023/05/09 01:39:38;;;;;;;30.08;16.73;;;;;;;14.25;96.16;101560.06;4985616;28;20438;-67
2023/05/09 01:42:07;;;;;;;30.63;17.15;;;;;;;14.22;95.86;101549.34;4986903;28;20093;-68
2023/05/09 01:44:43;;;;;;;31.02;15.68;;;;;;;14.21;96.04;101555.81;4985806;28;20410;-67
2023/05/09 01:47:09;;;;;;;35.65;15.77;;;;;;;14.16;96.54;101547.94;4986088;28;20503;-68
2023/05/09 01:49:37;;;;;;;32.42;16.45;;;;;;;14.13;97.48;101550.03;4987129;28;20087;-68
2023/05/09 01:52:07;;;;;;;35.40;17.38;;;;;;;14.08;98.45;101541.31;4984154;28;20104;-69
2023/05/09 01:54:34;;;;;;;28.00;15.52;;;;;;;14.09;97.32;101537.59;4987028;28;20498;-68
2023/05/09 01:57:02;;;;;;;29.42;15.90;;;;;;;14.10;97.37;101532.00;4986409;28;20030;-68
2023/05/09 01:59:30;;;;;;;25.63;14.70;;;;;;;14.10;97.29;101532.00;4985706;28;20030;-67
2023/05/09 02:01:57;;;;;;;28.00;15.27;;;;;;;14.11;97.60;101536.47;4990517;28;20176;-67
2023/05/09 02:04:23;;;;;;;28.08;15.35;;;;;;;14.08;97.51;101527.63;4985976;28;20058;-69
2023/05/09 02:06:50;;;;;;;28.10;16.13;;;;;;;14.03;97.36;101520.66;4985478;28;20105;-67
2023/05/09 02:09:20;;;;;;;27.23;14.77;;;;;;;14.03;96.71;101527.97;4985448;28;20357;-68
2023/05/09 02:11:46;;;;;;;29.05;15.35;;;;;;;14.02;97.20;101528.97;4986420;28;20049;-68
2023/05/09 02:14:12;;;;;;;26.02;14.68;;;;;;;13.99;97.66;101527.34;4985617;28;20125;-68
2023/05/09 02:16:38;;;;;;;26.25;14.50;;;;;;;13.96;97.37;101516.63;4990169;28;20038;-67
2023/05/09 02:19:04;;;;;;;24.38;13.90;;;;;;;13.95;97.27;101520.38;4990312;28;20030;-67
2023/05/09 02:21:29;;;;;;;29.75;15.52;;;;;;;13.94;97.31;101521.38;4988500;28;20458;-67
2023/05/09 02:23:55;;;;;;;25.85;14.32;;;;;;;13.93;97.62;101524.19;4990639;28;20057;-67
2023/05/09 02:26:21;;;;;;;26.13;14.50;;;;;;;13.93;96.87;101540.63;4988961;28;20077;-67
2023/05/09 02:28:48;;;;;;;23.50;13.18;;;;;;;13.92;96.89;101534.28;5024770;28;20321;-67
2023/05/09 02:31:17;;;;;;;27.35;14.20;;;;;;;13.91;97.59;101537.13;5001165;28;20030;-67
2023/05/09 02:33:45;;;;;;;25.33;14.32;;;;;;;13.88;97.30;101532.75;4989097;28;20431;-67
2023/05/09 02:36:12;;;;;;;25.92;13.30;;;;;;;13.87;97.48;101530.13;5005769;28;20030;-67
2023/05/09 02:38:40;;;;;;;21.60;13.50;;;;;;;13.86;97.22;101536.59;5007663;28;20033;-67
2023/05/09 02:41:06;;;;;;;23.33;13.70;;;;;;;13.83;97.73;101534.97;5008799;28;20397;-68
2023/05/09 02:43:31;;;;;;;22.80;13.35;;;;;;;13.78;97.06;101532.56;4989654;28;20030;-68
2023/05/09 02:45:57;;;;;;;27.25;15.02;;;;;;;13.78;97.57;101532.56;4988895;28;20073;-67
2023/05/09 02:48:22;;;;;;;27.98;14.30;;;;;;;13.72;98.08;101516.63;4990474;28;20049;-68
2023/05/09 02:50:48;;;;;;;27.00;14.18;;;;;;;13.70;98.67;101512.25;4988924;28;20486;-67
2023/05/09 02:53:13;;;;;;;26.15;14.13;;;;;;;13.68;97.96;101504.19;4989160;28;20037;-67
2023/05/09 02:55:40;;;;;;;26.10;13.85;;;;;;;13.68;98.55;101514.25;4989038;28;20053;-68
2023/05/09 02:58:05;;;;;;;22.15;12.75;;;;;;;13.68;97.18;101508.78;5002051;28;20072;-67
2023/05/09 03:00:31;;;;;;;24.40;15.20;;;;;;;13.67;98.40;101505.16;5008317;28;20077;-68
2023/05/09 03:02:57;;;;;;;27.15;13.80;;;;;;;13.59;97.93;101496.66;5008074;28;20401;-69
2023/05/09 03:05:22;;;;;;;28.42;14.63;;;;;;;13.61;98.20;101497.41;4987189;28;20463;-68
2023/05/09 03:07:48;;;;;;;29.90;16.13;;;;;;;13.60;97.84;101492.06;4987070;28;20034;-68
2023/05/09 03:10:14;;;;;;;24.67;14.02;;;;;;;13.60;97.94;101497.53;4989461;28;20545;-69
2023/05/09 03:12:42;;;;;;;27.38;14.65;;;;;;;13.58;98.06;101483.97;4988207;28;20058;-68
2023/05/09 03:15:08;;;;;;;25.05;14.05;;;;;;;13.60;97.64;101483.84;4990029;28;20042;-68
2023/05/09 03:17:34;;;;;;;26.90;14.32;;;;;;;13.60;98.08;101481.13;4988019;28;20030;-67
2023/05/09 03:19:59;;;;;;;23.33;14.07;;;;;;;13.59;98.00;101479.38;4989518;28;20026;-68
2023/05/09 03:22:25;;;;;;;29.60;14.55;;;;;;;13.60;98.40;101473.78;4988336;28;20124;-67
2023/05/09 03:24:56;;;;;;;29.70;13.77;;;;;;;13.61;96.96;101481.00;4988899;28;20030;-68
2023/05/09 03:27:22;;;;;;;26.73;13.65;;;;;;;13.62;97.02;101480.03;4991757;28;20038;-68
2023/05/09 03:29:48;;;;;;;26.38;14.00;;;;;;;13.60;97.66;101476.53;4988043;28;20038;-68
2023/05/09 03:32:15;;;;;;;22.73;13.43;;;;;;;13.59;97.59;101474.78;4987743;28;20125;-67
2023/05/09 03:34:40;;;;;;;27.40;13.88;;;;;;;13.56;97.98;101476.88;4989155;28;20213;-68
2023/05/09 03:37:06;;;;;;;29.15;15.20;;;;;;;13.57;98.10;101471.31;4986653;28;20038;-67
2023/05/09 03:39:35;;;;;;;28.27;14.55;;;;;;;13.58;98.19;101464.84;4988610;28;20026;-68
2023/05/09 03:42:01;;;;;;;28.58;15.35;;;;;;;13.57;99.11;101471.31;4988927;28;20117;-68
2023/05/09 03:44:26;;;;;;;30.48;15.80;;;;;;;13.55;98.85;101469.66;4988662;28;20058;-68
2023/05/09 03:46:52;;;;;;;26.55;14.90;;;;;;;13.53;98.78;101464.31;4997883;28;20038;-67
2023/05/09 03:49:17;;;;;;;27.35;15.10;;;;;;;13.52;98.60;101466.19;4987766;28;20418;-68
2023/05/09 03:51:44;;;;;;;30.52;15.38;;;;;;;13.51;98.99;101458.94;4987062;28;20042;-67
2023/05/09 03:54:13;;;;;;;25.13;14.75;;;;;;;13.51;97.79;101463.53;4987775;28;20023;-67
2023/05/09 03:56:39;;;;;;;29.63;14.77;;;;;;;13.50;99.25;101457.22;4987550;28;20045;-67
2023/05/09 03:59:04;;;;;;;27.23;15.35;;;;;;;13.49;99.41;101449.13;4989150;28;20042;-67
2023/05/09 04:01:31;;;;;;;29.77;16.77;;;;;;;13.46;99.62;101452.09;4987023;28;20018;-68
2023/05/09 04:03:59;;;;;;;27.80;15.30;;;;;;;13.44;100.00;101454.94;4987140;28;20046;-67
2023/05/09 04:06:25;;;;;;;32.25;14.88;;;;;;;13.42;99.99;101440.50;4998878;28;20159;-67
2023/05/09 04:08:51;;;;;;;26.98;15.88;;;;;;;13.44;100.00;101448.59;5005894;28;20042;-68
2023/05/09 04:11:17;;;;;;;28.17;15.20;;;;;;;13.41;100.00;101436.03;5002529;28;20669;-68
2023/05/09 04:13:44;;;;;;;29.98;15.80;;;;;;;13.43;100.00;101424.97;4987085;28;20034;-67
2023/05/09 04:16:20;;;;;;;31.00;14.35;;;;;;;13.42;99.92;101426.84;4987493;28;20034;-68
2023/05/09 04:18:46;;;;;;;26.60;14.95;;;;;;;13.44;100.00;101427.63;4987584;28;20241;-68
2023/05/09 04:21:12;;;;;;;28.95;14.98;;;;;;;13.44;100.00;101421.28;4987661;28;20034;-68
2023/05/09 04:23:38;;;;;;;31.40;15.55;;;;;;;13.44;100.00;101422.16;4992962;28;20410;-68
2023/05/09 04:26:04;;;;;;;27.23;15.05;;;;;;;13.46;99.39;101425.63;4986813;28;20062;-68
2023/05/09 04:28:30;;;;;;;25.77;13.02;;;;;;;13.49;99.43;101430.00;4988112;28;20469;-68
2023/05/09 04:30:55;;;;;;;25.45;14.27;;;;;;;13.48;100.00;101429.13;4987298;28;20085;-69
2023/05/09 04:33:22;;;;;;;27.52;14.10;;;;;;;13.50;99.94;101429.00;4988415;28;20138;-69
2023/05/09 04:35:48;;;;;;;28.95;14.43;;;;;;;13.54;99.96;101425.06;4987186;28;20108;-67
2023/05/09 04:38:15;;;;;;;20.73;12.32;;;;;;;13.59;99.39;101425.56;4985291;28;20030;-67
2023/05/09 04:40:40;;;;;;;25.30;14.07;;;;;;;13.62;99.90;101419.00;4986532;28;20030;-67
2023/05/09 04:43:06;;;;;;;23.52;13.30;;;;;;;13.66;99.12;101421.41;4987101;28;20133;-68
2023/05/09 04:45:31;;;;;;;25.88;13.20;;;;;;;13.68;99.32;101413.06;4986985;28;20046;-67
2023/05/09 04:47:58;;;;;;;21.92;13.50;;;;;;;13.68;99.51;101407.59;4986283;28;20513;-68
2023/05/09 04:50:23;;;;;;;25.80;13.45;;;;;;;13.71;99.59;101410.13;4988930;28;20479;-67
2023/05/09 04:52:49;;;;;;;23.63;12.73;;;;;;;13.75;99.54;101406.13;4986270;28;20049;-68
2023/05/09 04:55:15;;;;;;;25.35;12.98;;;;;;;13.79;98.93;101402.16;4986526;28;20143;-68
2023/05/09 04:57:43;;;;;;;23.77;12.75;;;;;;;13.84;98.53;101401.81;4995019;28;20122;-69
2023/05/09 05:00:12;;;;;;;23.35;13.13;;;;;;;13.88;98.81;101395.13;4987985;28;20113;-68
2023/05/09 05:02:39;;;;;;;23.58;13.48;;;;;;;13.91;99.41;101397.63;4985749;28;20045;-68
2023/05/09 05:05:05;;;;;;;19.63;11.75;;;;;;;13.94;98.88;101389.16;4985642;28;20053;-68
2023/05/09 05:07:34;;;;;;;18.55;11.63;;;;;;;13.97;98.32;101389.81;4985206;28;20109;-68
2023/05/09 05:10:00;;;;;;;22.38;12.77;;;;;;;13.98;98.55;101379.72;4987506;28;20034;-68
2023/05/09 05:12:25;;;;;;;22.10;12.73;;;;;;;13.97;98.82;101370.66;4994289;28;20033;-68
2023/05/09 05:14:50;;;;;;;19.80;11.38;;;;;;;13.99;98.36;101360.47;5005656;28;20041;-68
2023/05/09 05:17:19;;;;;;;21.38;12.02;;;;;;;14.01;99.19;101358.47;5004906;28;20088;-68
2023/05/09 05:19:45;;;;;;;21.17;11.65;;;;;;;14.02;98.41;101356.59;5006183;28;20113;-68
2023/05/09 05:22:11;;;;;;;18.85;11.45;;;;;;;14.04;98.43;101352.78;5004426;28;20045;-68
2023/05/09 05:24:38;;;;;;;24.05;12.73;;;;;;;14.07;98.63;101351.66;4971809;28;20042;-68
2023/05/09 05:27:04;;;;;;;18.60;11.15;;;;;;;14.09;98.60;101348.81;4986908;28;20184;-68
2023/05/09 05:29:30;;;;;;;23.33;13.27;;;;;;;14.14;97.86;101350.19;4985793;28;20050;-68
2023/05/09 05:31:55;;;;;;;21.35;12.25;;;;;;;14.16;98.10;101350.91;4986143;28;20473;-69
2023/05/09 05:34:20;;;;;;;17.80;12.20;;;;;;;14.20;97.76;101352.41;4985906;28;21381;-69
2023/05/09 05:36:46;;;;;;;18.13;11.05;;;;;;;14.27;97.48;101350.09;4989966;28;20295;-68
2023/05/09 05:39:11;;;;;;;21.42;12.02;;;;;;;14.31;97.74;101346.06;4985338;28;20026;-68
2023/05/09 05:41:37;;;;;;;22.85;12.55;;;;;;;14.41;97.73;101346.19;4992230;28;20124;-68
2023/05/09 05:44:04;;;;;;;17.35;11.57;;;;;;;14.50;97.05;101338.19;5000686;28;20034;-68
2023/05/09 05:46:30;;;;;;;19.38;12.00;;;;;;;14.61;96.44;101341.91;5004926;28;20044;-68
2023/05/09 05:48:57;;;;;;;24.83;11.45;;;;;;;14.67;97.15;101341.41;5005304;28;20030;-69
2023/05/09 05:51:23;;;;;;;24.15;12.02;;;;;;;14.75;96.69;101341.66;5003116;28;20511;-68
2023/05/09 05:53:49;;;;;;;20.00;12.55;;;;;;;14.81;94.78;101338.41;4985034;28;20113;-68
2023/05/09 05:56:15;;;;;;;19.17;11.40;;;;;;;14.87;95.66;101342.50;4988456;28;20041;-69
2023/05/09 05:58:40;;;;;;;20.83;12.27;;;;;;;14.92;95.10;101332.91;4990057;28;20247;-68
2023/05/09 06:01:06;;;;;;;20.33;11.77;;;;;;;15.02;95.04;101333.03;4985594;28;20084;-68
2023/05/09 06:03:31;;;;;;;22.80;13.15;;;;;;;15.04;94.51;101329.13;4995236;28;20482;-68
2023/05/09 06:06:03;;;;;;;18.58;12.23;;;;;;;15.09;94.97;101330.63;5004046;28;20489;-68
2023/05/09 06:08:28;;;;;;;21.58;11.95;;;;;;;15.09;93.32;101323.28;5005724;28;20029;-68
2023/05/09 06:10:54;;;;;;;18.33;12.07;;;;;;;15.10;93.88;101319.53;5005179;28;20029;-68
2023/05/09 06:13:19;;;;;;;20.33;12.18;;;;;;;15.09;93.42;101311.44;4990292;28;20137;-68
2023/05/09 06:15:50;;;;;;;17.63;10.38;;;;;;;15.18;93.61;101313.41;4986005;28;20026;-68
2023/05/09 06:18:15;;;;;;;20.10;12.75;;;;;;;15.22;94.26;101303.94;4985296;28;20132;-68
2023/05/09 06:20:40;;;;;;;18.23;11.85;;;;;;;15.26;93.39;101308.16;4985652;28;20027;-68
2023/05/09 06:23:06;;;;;;;19.45;12.23;;;;;;;15.25;93.21;101307.28;4985323;28;20209;-68
2023/05/09 06:25:31;;;;;;;20.38;11.38;;;;;;;15.29;92.11;101310.63;4986620;28;20093;-68
2023/05/09 06:27:57;;;;;;;19.40;11.15;;;;;;;15.28;91.72;101297.91;4987100;28;20038;-69
2023/05/09 06:30:22;;;;;;;18.48;11.35;;;;;;;15.35;91.77;101312.84;4987453;28;20053;-68
2023/05/09 06:32:47;;;;;;;20.30;10.75;;;;;;;15.37;91.24;101307.22;4984713;28;20038;-68
2023/05/09 06:35:14;;;;;;;17.10;10.88;;;;;;;15.39;91.67;101306.13;4996228;28;20501;-68
2023/05/09 06:37:39;;;;;;;17.60;11.35;;;;;;;15.35;91.40;101306.50;5004554;28;20057;-68
2023/05/09 06:40:06;;;;;;;21.55;11.10;;;;;;;15.36;91.69;101305.50;5001437;28;20069;-68
2023/05/09 06:42:32;;;;;;;18.00;11.05;;;;;;;15.39;91.50;101300.63;4997312;28;20120;-68
2023/05/09 06:44:57;;;;;;;21.85;11.57;;;;;;;15.43;90.78;101296.59;4997299;28;20552;-68
2023/05/09 06:47:23;;;;;;;22.98;11.60;;;;;;;15.48;90.92;101294.34;5005053;28;20190;-68
2023/05/09 06:49:48;;;;;;;21.17;12.82;;;;;;;15.52;91.23;101294.94;5005056;28;20470;-68
2023/05/09 06:52:14;;;;;;;18.60;11.40;;;;;;;15.58;90.97;101288.94;5004890;28;20521;-68
2023/05/09 06:54:40;;;;;;;18.85;11.73;;;;;;;15.67;91.09;101285.44;5006667;28;20433;-68
2023/05/09 06:57:05;;;;;;;17.10;11.43;;;;;;;15.69;90.35;101283.41;5000116;28;20038;-69
2023/05/09 06:59:30;;;;;;;19.10;11.57;;;;;;;15.76;89.63;101273.66;4986496;28;20038;-68
2023/05/09 07:01:56;;;;;;;18.60;11.63;;;;;;;15.82;91.36;101281.34;4998360;28;20092;-68
2023/05/09 07:04:21;;;;;;;18.27;11.40;;;;;;;15.89;90.84;101278.94;5006133;28;20483;-68
2023/05/09 07:06:46;;;;;;;18.67;11.00;;;;;;;15.89;88.94;101273.44;4989359;28;20537;-68
2023/05/09 07:09:14;;;;;;;18.02;10.10;;;;;;;15.92;89.23;101269.56;4989261;28;20036;-68
2023/05/09 07:11:41;;;;;;;18.30;10.90;;;;;;;15.90;89.65;101271.56;4989542;28;20435;-68
2023/05/09 07:14:06;;;;;;;18.08;9.93;;;;;;;15.86;88.31;101268.25;4990121;28;20061;-68
2023/05/09 07:16:31;;;;;;;18.55;10.18;;;;;;;15.83;89.45;101268.50;4989879;28;20042;-69
2023/05/09 07:18:57;;;;;;;15.90;10.45;;;;;;;15.89;89.25;101264.34;4989888;28;20049;-68
2023/05/09 07:21:22;;;;;;;16.23;9.90;;;;;;;15.82;87.86;101261.28;4989818;28;20077;-68
2023/05/09 07:23:48;;;;;;;15.05;9.82;;;;;;;15.78;88.54;101259.81;4988844;28;20042;-67
2023/05/09 07:26:13;;;;;;;17.15;9.57;;;;;;;15.80;89.12;101264.13;5004502;28;20394;-68
2023/05/09 07:28:38;;;;;;;13.07;9.60;;;;;;;15.78;89.20;101263.41;4989014;28;20026;-66
2023/05/09 07:31:04;;;;;;;13.52;9.15;;;;;;;15.76;89.39;101257.22;4989537;28;20042;-66
2023/05/09 07:33:30;;;;;;;13.88;9.65;;;;;;;15.67;89.65;101260.75;4988195;28;20069;-68
2023/05/09 07:35:58;;;;;;;12.60;9.30;;;;;;;15.59;89.04;101259.66;4992168;28;20076;-68
2023/05/09 07:38:23;;;;;;;12.18;9.27;;;;;;;15.53;88.93;101259.19;4988946;28;20076;-68
2023/05/09 07:40:48;;;;;;;14.68;9.10;;;;;;;15.52;90.03;101251.94;4988918;28;20374;-68
2023/05/09 07:43:14;;;;;;;12.55;9.10;;;;;;;15.48;90.40;101255.97;4989488;28;20417;-68
2023/05/09 07:45:39;;;;;;;15.73;8.57;;;;;;;15.46;91.30;101257.09;4989527;28;20105;-68
2023/05/09 07:48:05;;;;;;;11.25;8.63;;;;;;;15.43;92.34;101251.84;4989052;28;20133;-69
2023/05/09 07:50:30;;;;;;;13.13;8.90;;;;;;;15.38;91.58;101245.91;5004165;28;20502;-69
2023/05/09 07:52:56;;;;;;;11.55;8.48;;;;;;;15.26;93.66;101247.84;5008091;28;20065;-68
2023/05/09 07:55:21;;;;;;;15.25;9.02;;;;;;;15.23;92.80;101253.59;5009300;28;20100;-68
2023/05/09 07:57:46;;;;;;;10.57;8.40;;;;;;;15.26;93.68;101247.84;4998027;28;20497;-68
2023/05/09 08:00:13;;;;;;;11.52;8.90;;;;;;;15.32;94.61;101245.44;4989189;28;20030;-69
2023/05/09 08:02:39;;;;;;;14.95;9.88;;;;;;;15.29;96.05;101234.75;4988689;28;20038;-69
2023/05/09 08:05:05;;;;;;;13.20;8.18;;;;;;;15.28;94.99;101233.00;4987420;28;20050;-68
2023/05/09 08:07:30;;;;;;;12.15;9.23;;;;;;;15.25;96.18;101225.06;4987443;28;20118;-69
2023/05/09 08:09:55;;;;;;;13.50;9.48;;;;;;;15.36;95.70;101220.50;4989391;28;20092;-69
2023/05/09 08:12:21;;;;;;;13.48;8.85;;;;;;;15.41;94.21;101219.09;4988572;28;20034;-69
2023/05/09 08:14:46;;;;;;;10.57;7.63;;;;;;;15.47;95.02;101215.81;4988971;28;20050;-69
2023/05/09 08:17:11;;;;;;;12.55;9.23;;;;;;;15.52;94.10;101218.16;4988677;28;20041;-69
2023/05/09 08:19:37;;;;;;;13.23;8.43;;;;;;;15.59;94.38;101216.63;4987490;28;20128;-69
2023/05/09 08:22:02;;;;;;;15.85;8.60;;;;;;;15.63;94.66;101209.88;4987388;28;20034;-69
2023/05/09 08:24:28;;;;;;;10.52;8.10;;;;;;;15.68;92.55;101206.75;4988910;28;20091;-69
2023/05/09 08:26:53;;;;;;;14.02;9.00;;;;;;;15.77;93.78;101194.97;4988761;28;20095;-69
2023/05/09 08:29:19;;;;;;;11.85;8.55;;;;;;;15.87;94.44;101190.41;4988844;28;20034;-69
2023/05/09 08:31:44;;;;;;;10.10;7.30;;;;;;;15.92;92.72;101192.72;4987126;28;20069;-69
2023/05/09 08:34:09;;;;;;;9.18;6.63;;;;;;;15.90;91.14;101192.88;4991128;28;20041;-69
2023/05/09 08:36:35;;;;;;;10.85;7.20;;;;;;;15.89;91.30;101184.75;5007503;28;20501;-69
2023/05/09 08:39:01;;;;;;;11.05;7.35;;;;;;;15.89;90.43;101187.50;5005916;28;20044;-69
2023/05/09 08:41:26;;;;;;;11.18;7.28;;;;;;;15.98;91.43;101178.44;5004891;28;20106;-69
2023/05/09 08:43:53;;;;;;;10.32;6.85;;;;;;;15.98;91.15;101181.19;4987435;28;20121;-69
2023/05/09 08:46:25;;;;;;;8.13;6.55;;;;;;;16.05;91.38;101177.78;4988554;28;20042;-70
2023/05/09 08:48:51;;;;;;;8.15;6.90;;;;;;;16.07;89.08;101180.38;4990246;28;20329;-69
2023/05/09 08:51:17;;;;;;;10.20;7.28;;;;;;;16.05;90.79;101176.91;5007457;28;20664;-69
2023/05/09 08:53:43;;;;;;;9.43;6.60;;;;;;;16.09;91.56;101172.88;5006771;28;20141;-69
2023/05/09 08:56:08;;;;;;;10.75;6.72;;;;;;;16.14;92.02;101178.81;5007546;28;20496;-70
2023/05/09 08:58:34;;;;;;;9.48;6.88;;;;;;;16.17;91.84;101170.28;4989522;28;20045;-70
2023/05/09 09:01:03;;;;;;;9.65;7.18;;;;;;;16.16;92.50;101170.44;4990180;28;20070;-70
2023/05/09 09:03:29;;;;;;;10.35;7.30;;;;;;;16.00;91.47;101170.97;5005930;28;20045;-69
2023/05/09 09:05:55;;;;;;;11.73;6.75;;;;;;;15.99;90.31;101171.94;4993649;28;20155;-69
2023/05/09 09:08:21;;;;;;;10.02;6.85;;;;;;;16.06;92.07;101173.16;4985006;28;20428;-70
2023/05/09 09:10:47;;;;;;;10.95;7.47;;;;;;;16.00;91.87;101154.50;4987412;28;20362;-70
2023/05/09 09:13:15;;;;;;;11.27;6.95;;;;;;;16.06;92.58;101168.53;4987290;28;20042;-70
2023/05/09 09:15:43;;;;;;;13.75;7.05;;;;;;;16.01;91.34;101168.06;4988239;28;20124;-70
2023/05/09 09:18:11;;;;;;;10.32;6.65;;;;;;;16.05;91.50;101160.44;4987542;28;20549;-70
2023/05/09 09:20:45;;;;;;;9.27;6.70;;;;;;;16.03;92.16;101165.19;4987863;28;20117;-70
2023/05/09 09:23:14;;;;;;;10.82;6.18;;;;;;;16.03;92.86;101167.91;4986107;28;20082;-70
2023/05/09 09:25:39;;;;;;;8.75;6.63;;;;;;;15.93;91.71;101156.91;4986699;28;20026;-70
2023/05/09 09:28:05;;;;;;;9.20;6.53;;;;;;;15.85;92.30;101151.25;4997349;28;20124;-70
2023/05/09 09:30:30;;;;;;;9.80;6.30;;;;;;;15.70;92.00;101153.47;4995201;28;20074;-71
2023/05/09 09:32:58;;;;;;;9.30;5.97;;;;;;;15.59;93.37;101150.81;4986501;28;20053;-70
2023/05/09 09:35:23;;;;;;;8.90;6.18;;;;;;;15.62;93.15;101145.06;4988213;28;20455;-71
2023/05/09 09:37:56;;;;;;;10.68;6.18;;;;;;;15.64;93.81;101142.22;4986125;28;20049;-70
2023/05/09 09:40:23;;;;;;;7.97;5.70;;;;;;;15.68;93.19;101150.03;4986620;28;20153;-71
2023/05/09 09:42:50;;;;;;;8.35;5.68;;;;;;;15.70;94.97;101131.53;4987059;28;20045;-71
2023/05/09 09:45:17;;;;;;;9.05;5.57;;;;;;;15.77;95.27;101140.97;4987428;28;20061;-71
2023/05/09 09:47:45;;;;;;;7.35;5.25;;;;;;;15.69;92.64;101129.81;4987343;28;20078;-71
2023/05/09 09:50:13;;;;;;;10.02;5.45;;;;;;;15.80;93.69;101132.44;4986772;28;20506;-72
2023/05/09 09:52:42;;;;;;;10.15;5.50;;;;;;;15.91;92.99;101131.50;4985880;28;20042;-72
2023/05/09 09:55:08;;;;;;;7.25;5.75;;;;;;;16.04;96.55;101133.97;4987223;28;20070;-71
2023/05/09 09:57:38;;;;;;;8.90;5.13;;;;;;;16.11;92.71;101129.69;4986394;28;20077;-71
2023/05/09 10:00:05;;;;;;;7.03;5.82;;;;;;;16.14;94.93;101121.19;4987249;28;20133;-71
2023/05/09 10:02:31;;;;;;;6.18;4.88;;;;;;;16.21;93.36;101121.47;5001578;28;20065;-71
2023/05/09 10:05:06;;;;;;;8.30;5.30;;;;;;;16.16;92.50;101112.78;5006670;28;20097;-72
2023/05/09 10:07:34;;;;;;;7.70;5.65;;;;;;;16.20;92.45;101119.75;4985956;28;20049;-71
2023/05/09 10:10:04;;;;;;;7.40;5.60;;;;;;;16.21;92.89;101111.34;4987081;28;20074;-70
2023/05/09 10:12:35;;;;;;;7.32;5.32;;;;;;;16.22;94.33;101115.81;4986858;28;20128;-71
2023/05/09 10:15:03;;;;;;;8.48;5.70;;;;;;;16.09;92.98;101112.50;4987344;28;20116;-71
2023/05/09 10:17:31;;;;;;;7.65;5.70;;;;;;;16.06;93.02;101112.75;4985372;28;20100;-70
2023/05/09 10:20:03;;;;;;;9.38;6.30;;;;;;;16.02;94.03;101111.31;5002440;28;20478;-71
2023/05/09 10:22:30;;;;;;;8.43;6.15;;;;;;;16.00;94.67;101111.47;4986040;28;20061;-71
2023/05/09 10:24:58;;;;;;;7.80;5.68;;;;;;;15.94;95.31;101101.00;4987368;28;20022;-70
2023/05/09 10:27:26;;;;;;;7.97;5.65;;;;;;;15.94;95.55;101106.50;4987083;28;20450;-71
2023/05/09 10:30:03;;;;;;;9.48;5.93;;;;;;;15.94;95.20;101102.91;4985878;28;20112;-71
2023/05/09 10:32:52;;;;;;;7.20;5.30;;;;;;;15.94;94.73;101094.66;4986608;28;20089;-71
2023/05/09 10:35:23;;;;;;;9.32;5.65;;;;;;;15.91;95.37;101103.19;4985387;28;20074;-71
2023/05/09 10:37:49;;;;;;;6.63;5.22;;;;;;;15.90;96.56;101096.84;4988804;28;20479;-71
2023/05/09 10:40:14;;;;;;;7.40;6.22;;;;;;;15.86;95.97;101086.28;4989294;28;20114;-71
2023/05/09 10:42:42;;;;;;;7.82;5.30;;;;;;;15.85;95.45;101088.13;4990227;28;20030;-71
2023/05/09 10:45:09;;;;;;;10.18;6.22;;;;;;;15.82;95.66;101075.56;4990699;28;20081;-71
2023/05/09 10:47:35;;;;;;;13.60;6.22;;;;;;;15.93;95.30;101073.72;4990256;28;20045;-71
2023/05/09 10:50:02;;;;;;;13.30;5.95;;;;;;;15.95;95.47;101069.84;4990312;28;20065;-71
2023/05/09 10:52:32;;;;;;;6.95;6.15;;;;;;;15.85;95.23;101079.91;4997252;28;20092;-71
2023/05/09 10:55:02;;;;;;;6.15;5.07;;;;;;;15.69;95.73;101066.72;5008727;28;20129;-71
2023/05/09 10:57:31;;;;;;;8.85;5.60;;;;;;;15.66;96.50;101072.47;5002485;28;20066;-71
2023/05/09 10:59:58;;;;;;;11.45;6.10;;;;;;;15.62;97.33;101076.50;4990547;28;20076;-71
2023/05/09 11:02:31;;;;;;;9.35;6.32;;;;;;;15.73;98.09;101070.06;4990499;28;20140;-70
2023/05/09 11:05:17;;;;;;;6.47;5.57;;;;;;;15.71;94.99;101077.53;4990480;28;20501;-68
2023/05/09 11:07:42;;;;;;;7.70;6.03;;;;;;;15.60;97.31;101075.75;4987680;28;20042;-69
2023/05/09 11:10:08;;;;;;;7.72;5.80;;;;;;;15.53;96.89;101066.34;4988391;28;20109;-70
2023/05/09 11:12:52;;;;;;;7.65;5.78;;;;;;;15.46;96.66;101054.19;4989982;28;20038;-70